sensor_id;sensor_type;location;lat;lon;timestamp;temperature;humidity
53695;DHT22;39588;51.124;7.190;2023-02-01T00:40:00;5.60;99.90
53695;DHT22;39588;51.124;7.190;2023-02-01T00:49:45;5.60;99.90
53695;DHT22;39588;51.124;7.190;2023-02-01T00:57:03;5.50;99.90
53695;DHT22;39588;51.124;7.190;2023-02-01T00:59:29;5.60;99.90
53695;DHT22;39588;51.124;7.190;2023-02-01T01:01:55;5.60;99.90
53695;DHT22;39588;51.124;7.190;2023-02-01T01:06:46;5.60;99.90
53695;DHT22;39588;51.124;7.190;2023-02-01T01:09:12;5.70;99.90
53695;DHT22;39588;51.124;7.190;2023-02-01T01:11:38;5.60;99.90
53695;DHT22;39588;51.124;7.190;2023-02-01T01:14:04;5.50;99.90
53695;DHT22;39588;51.124;7.190;2023-02-01T01:16:31;5.50;99.90
53695;DHT22;39588;51.124;7.190;2023-02-01T01:18:57;5.50;99.90
53695;DHT22;39588;51.124;7.190;2023-02-01T01:21:24;5.40;99.90
53695;DHT22;39588;51.124;7.190;2023-02-01T01:23:50;5.50;99.90
53695;DHT22;39588;51.124;7.190;2023-02-01T01:26:21;5.40;99.90
53695;DHT22;39588;51.124;7.190;2023-02-01T01:28:48;5.40;99.90
53695;DHT22;39588;51.124;7.190;2023-02-01T01:31:15;5.30;99.90
53695;DHT22;39588;51.124;7.190;2023-02-01T01:33:42;5.30;99.90
53695;DHT22;39588;51.124;7.190;2023-02-01T01:38:37;5.30;99.90
53695;DHT22;39588;51.124;7.190;2023-02-01T01:46:19;5.30;99.90
53695;DHT22;39588;51.124;7.190;2023-02-01T01:51:13;5.30;99.90
53695;DHT22;39588;51.124;7.190;2023-02-01T01:58:38;5.30;99.90
53695;DHT22;39588;51.124;7.190;2023-02-01T02:10:53;5.10;99.90
53695;DHT22;39588;51.124;7.190;2023-02-01T02:38:21;5.00;99.90
53695;DHT22;39588;51.124;7.190;2023-02-01T02:43:49;4.90;99.90
53695;DHT22;39588;51.124;7.190;2023-02-01T02:46:47;4.80;99.90
53695;DHT22;39588;51.124;7.190;2023-02-01T02:49:43;4.70;99.90
53695;DHT22;39588;51.124;7.190;2023-02-01T03:06:01;4.70;99.90
53695;DHT22;39588;51.124;7.190;2023-02-01T03:08:29;4.70;99.90
53695;DHT22;39588;51.124;7.190;2023-02-01T03:11:02;4.70;99.90
53695;DHT22;39588;51.124;7.190;2023-02-01T03:13:54;4.80;99.90
53695;DHT22;39588;51.124;7.190;2023-02-01T03:26:41;4.70;99.90
53695;DHT22;39588;51.124;7.190;2023-02-01T03:29:29;4.80;99.90
53695;DHT22;39588;51.124;7.190;2023-02-01T03:31:56;4.80;99.90
53695;DHT22;39588;51.124;7.190;2023-02-01T03:36:54;4.80;99.90
53695;DHT22;39588;51.124;7.190;2023-02-01T03:41:53;4.80;99.90
53695;DHT22;39588;51.124;7.190;2023-02-01T03:44:32;4.80;99.90
53695;DHT22;39588;51.124;7.190;2023-02-01T03:47:06;4.80;99.90
53695;DHT22;39588;51.124;7.190;2023-02-01T03:49:37;4.80;99.90
53695;DHT22;39588;51.124;7.190;2023-02-01T03:54:32;4.80;99.90
53695;DHT22;39588;51.124;7.190;2023-02-01T03:59:26;4.80;99.90
53695;DHT22;39588;51.124;7.190;2023-02-01T04:06:48;4.80;99.90
53695;DHT22;39588;51.124;7.190;2023-02-01T04:09:14;4.80;99.90
53695;DHT22;39588;51.124;7.190;2023-02-01T04:11:40;4.80;99.90
53695;DHT22;39588;51.124;7.190;2023-02-01T04:21:25;4.90;99.90
53695;DHT22;39588;51.124;7.190;2023-02-01T04:23:51;4.90;99.90
53695;DHT22;39588;51.124;7.190;2023-02-01T04:40:58;4.40;99.90
53695;DHT22;39588;51.124;7.190;2023-02-01T04:43:24;4.40;99.90
53695;DHT22;39588;51.124;7.190;2023-02-01T04:45:50;4.40;99.90
53695;DHT22;39588;51.124;7.190;2023-02-01T04:48:17;4.40;99.90
53695;DHT22;39588;51.124;7.190;2023-02-01T04:50:44;4.50;99.90
53695;DHT22;39588;51.124;7.190;2023-02-01T04:53:17;4.50;99.90
53695;DHT22;39588;51.124;7.190;2023-02-01T04:55:43;4.60;99.90
53695;DHT22;39588;51.124;7.190;2023-02-01T04:58:09;4.60;99.90
53695;DHT22;39588;51.124;7.190;2023-02-01T05:00:36;4.60;99.90
53695;DHT22;39588;51.124;7.190;2023-02-01T05:05:28;4.70;99.90
53695;DHT22;39588;51.124;7.190;2023-02-01T05:07:54;4.70;99.90
53695;DHT22;39588;51.124;7.190;2023-02-01T05:10:21;4.80;99.90
53695;DHT22;39588;51.124;7.190;2023-02-01T05:12:47;4.80;99.90
53695;DHT22;39588;51.124;7.190;2023-02-01T05:15:31;4.80;99.90
53695;DHT22;39588;51.124;7.190;2023-02-01T05:17:57;4.80;99.90
53695;DHT22;39588;51.124;7.190;2023-02-01T05:20:24;4.80;99.90
53695;DHT22;39588;51.124;7.190;2023-02-01T05:22:49;4.80;99.90
53695;DHT22;39588;51.124;7.190;2023-02-01T05:25:15;4.80;99.90
53695;DHT22;39588;51.124;7.190;2023-02-01T05:27:41;4.80;99.90
53695;DHT22;39588;51.124;7.190;2023-02-01T05:30:08;4.80;99.90
53695;DHT22;39588;51.124;7.190;2023-02-01T05:32:34;4.80;99.90
53695;DHT22;39588;51.124;7.190;2023-02-01T05:34:59;4.80;99.90
53695;DHT22;39588;51.124;7.190;2023-02-01T05:37:25;4.80;99.90
53695;DHT22;39588;51.124;7.190;2023-02-01T05:39:51;4.80;99.90
53695;DHT22;39588;51.124;7.190;2023-02-01T05:44:42;4.80;99.90
53695;DHT22;39588;51.124;7.190;2023-02-01T05:47:08;4.80;99.90
53695;DHT22;39588;51.124;7.190;2023-02-01T05:49:34;4.70;99.90
53695;DHT22;39588;51.124;7.190;2023-02-01T05:52:00;4.80;99.90
53695;DHT22;39588;51.124;7.190;2023-02-01T05:54:25;4.70;99.90
53695;DHT22;39588;51.124;7.190;2023-02-01T05:56:51;4.70;99.90
53695;DHT22;39588;51.124;7.190;2023-02-01T06:01:42;4.70;99.90
53695;DHT22;39588;51.124;7.190;2023-02-01T06:04:08;4.70;99.90
53695;DHT22;39588;51.124;7.190;2023-02-01T06:06:34;4.70;99.90
53695;DHT22;39588;51.124;7.190;2023-02-01T06:09:02;4.70;99.90
53695;DHT22;39588;51.124;7.190;2023-02-01T06:11:28;4.60;99.90
53695;DHT22;39588;51.124;7.190;2023-02-01T06:16:21;4.60;99.90
53695;DHT22;39588;51.124;7.190;2023-02-01T06:21:13;4.70;99.90
53695;DHT22;39588;51.124;7.190;2023-02-01T06:23:49;4.60;99.90
53695;DHT22;39588;51.124;7.190;2023-02-01T06:26:16;4.60;99.90
53695;DHT22;39588;51.124;7.190;2023-02-01T06:28:43;4.60;99.90
53695;DHT22;39588;51.124;7.190;2023-02-01T06:31:09;4.60;99.90
53695;DHT22;39588;51.124;7.190;2023-02-01T06:33:35;4.60;99.90
53695;DHT22;39588;51.124;7.190;2023-02-01T06:36:03;4.60;99.90
53695;DHT22;39588;51.124;7.190;2023-02-01T06:40:56;4.70;99.90
53695;DHT22;39588;51.124;7.190;2023-02-01T06:43:24;4.70;99.90
53695;DHT22;39588;51.124;7.190;2023-02-01T06:48:16;4.60;99.90
53695;DHT22;39588;51.124;7.190;2023-02-01T06:50:42;4.70;99.90
53695;DHT22;39588;51.124;7.190;2023-02-01T06:53:07;4.70;99.90
53695;DHT22;39588;51.124;7.190;2023-02-01T06:55:33;4.70;99.90
53695;DHT22;39588;51.124;7.190;2023-02-01T07:00:26;4.70;99.80
53695;DHT22;39588;51.124;7.190;2023-02-01T07:02:52;4.70;99.90
53695;DHT22;39588;51.124;7.190;2023-02-01T07:05:17;4.70;99.90
53695;DHT22;39588;51.124;7.190;2023-02-01T07:17:28;4.80;99.90
53695;DHT22;39588;51.124;7.190;2023-02-01T07:19:55;4.90;99.80
53695;DHT22;39588;51.124;7.190;2023-02-01T07:34:32;4.80;99.90
53695;DHT22;39588;51.124;7.190;2023-02-01T07:39:24;4.80;99.90
53695;DHT22;39588;51.124;7.190;2023-02-01T07:41:49;4.80;99.90
53695;DHT22;39588;51.124;7.190;2023-02-01T07:44:15;4.80;99.90
53695;DHT22;39588;51.124;7.190;2023-02-01T07:46:42;4.80;99.90
53695;DHT22;39588;51.124;7.190;2023-02-01T07:56:26;4.80;99.90
53695;DHT22;39588;51.124;7.190;2023-02-01T07:58:54;4.80;99.90
53695;DHT22;39588;51.124;7.190;2023-02-01T08:01:26;4.80;99.90
53695;DHT22;39588;51.124;7.190;2023-02-01T08:03:54;4.80;99.90
53695;DHT22;39588;51.124;7.190;2023-02-01T08:06:21;4.80;99.90
53695;DHT22;39588;51.124;7.190;2023-02-01T08:08:51;4.80;99.90
53695;DHT22;39588;51.124;7.190;2023-02-01T08:11:18;4.80;99.90
53695;DHT22;39588;51.124;7.190;2023-02-01T08:13:45;4.80;99.90
53695;DHT22;39588;51.124;7.190;2023-02-01T08:16:11;4.80;99.90
53695;DHT22;39588;51.124;7.190;2023-02-01T08:18:38;4.80;99.90
53695;DHT22;39588;51.124;7.190;2023-02-01T08:21:10;4.70;99.90
53695;DHT22;39588;51.124;7.190;2023-02-01T08:23:37;4.70;99.90
53695;DHT22;39588;51.124;7.190;2023-02-01T08:26:19;4.80;99.90
53695;DHT22;39588;51.124;7.190;2023-02-01T08:28:53;4.70;99.90
53695;DHT22;39588;51.124;7.190;2023-02-01T08:31:21;4.70;99.90
53695;DHT22;39588;51.124;7.190;2023-02-01T08:33:50;4.70;99.90
53695;DHT22;39588;51.124;7.190;2023-02-01T08:36:16;4.70;99.90
53695;DHT22;39588;51.124;7.190;2023-02-01T08:38:42;4.80;99.90
53695;DHT22;39588;51.124;7.190;2023-02-01T08:41:13;4.80;99.90
53695;DHT22;39588;51.124;7.190;2023-02-01T08:43:40;4.80;99.90
53695;DHT22;39588;51.124;7.190;2023-02-01T08:46:07;4.80;99.90
53695;DHT22;39588;51.124;7.190;2023-02-01T08:48:33;4.90;99.90
53695;DHT22;39588;51.124;7.190;2023-02-01T08:51:04;4.90;99.90
53695;DHT22;39588;51.124;7.190;2023-02-01T08:55:56;4.90;99.80
53695;DHT22;39588;51.124;7.190;2023-02-01T08:58:22;4.90;99.90
53695;DHT22;39588;51.124;7.190;2023-02-01T09:00:48;4.90;99.90
53695;DHT22;39588;51.124;7.190;2023-02-01T09:03:14;4.80;99.90
53695;DHT22;39588;51.124;7.190;2023-02-01T09:05:41;4.80;99.90
53695;DHT22;39588;51.124;7.190;2023-02-01T09:10:34;4.90;99.90
53695;DHT22;39588;51.124;7.190;2023-02-01T09:13:00;4.90;99.90
53695;DHT22;39588;51.124;7.190;2023-02-01T09:15:25;4.90;99.90
53695;DHT22;39588;51.124;7.190;2023-02-01T09:17:51;4.90;99.90
53695;DHT22;39588;51.124;7.190;2023-02-01T09:20:17;4.90;99.90
53695;DHT22;39588;51.124;7.190;2023-02-01T09:22:44;4.90;99.90
53695;DHT22;39588;51.124;7.190;2023-02-01T09:25:09;5.00;99.90
53695;DHT22;39588;51.124;7.190;2023-02-01T09:30:02;5.00;99.90
53695;DHT22;39588;51.124;7.190;2023-02-01T09:32:28;5.00;99.90
53695;DHT22;39588;51.124;7.190;2023-02-01T09:39:46;4.90;99.90
53695;DHT22;39588;51.124;7.190;2023-02-01T09:45:40;5.00;99.90
53695;DHT22;39588;51.124;7.190;2023-02-01T09:48:16;5.00;99.90
53695;DHT22;39588;51.124;7.190;2023-02-01T09:50:48;5.10;99.90
53695;DHT22;39588;51.124;7.190;2023-02-01T09:53:41;5.20;99.90
53695;DHT22;39588;51.124;7.190;2023-02-01T09:56:14;5.30;99.80
53695;DHT22;39588;51.124;7.190;2023-02-01T09:58:49;5.30;99.80
53695;DHT22;39588;51.124;7.190;2023-02-01T10:01:20;5.30;99.60
53695;DHT22;39588;51.124;7.190;2023-02-01T10:03:48;5.30;99.60
53695;DHT22;39588;51.124;7.190;2023-02-01T10:10:09;5.10;99.70
53695;DHT22;39588;51.124;7.190;2023-02-01T10:12:36;5.10;99.70
53695;DHT22;39588;51.124;7.190;2023-02-01T10:18:15;5.10;99.70
53695;DHT22;39588;51.124;7.190;2023-02-01T10:21:02;5.10;99.90
53695;DHT22;39588;51.124;7.190;2023-02-01T10:24:02;5.10;99.80
53695;DHT22;39588;51.124;7.190;2023-02-01T10:26:37;5.10;99.80
53695;DHT22;39588;51.124;7.190;2023-02-01T10:29:19;5.10;99.80
53695;DHT22;39588;51.124;7.190;2023-02-01T10:31:45;5.20;99.80
53695;DHT22;39588;51.124;7.190;2023-02-01T10:36:47;5.20;99.80
53695;DHT22;39588;51.124;7.190;2023-02-01T11:04:26;5.40;99.50
53695;DHT22;39588;51.124;7.190;2023-02-01T11:09:41;5.50;99.50
53695;DHT22;39588;51.124;7.190;2023-02-01T11:12:31;5.50;99.50
53695;DHT22;39588;51.124;7.190;2023-02-01T11:15:20;5.50;99.40
53695;DHT22;39588;51.124;7.190;2023-02-01T11:17:49;5.50;99.50
53695;DHT22;39588;51.124;7.190;2023-02-01T11:20:19;5.50;99.30
53695;DHT22;39588;51.124;7.190;2023-02-01T11:22:54;5.50;99.30
53695;DHT22;39588;51.124;7.190;2023-02-01T11:27:49;5.50;99.50
53695;DHT22;39588;51.124;7.190;2023-02-01T11:30:18;5.50;99.40
53695;DHT22;39588;51.124;7.190;2023-02-01T11:32:48;5.50;99.40
53695;DHT22;39588;51.124;7.190;2023-02-01T11:35:18;5.50;99.40
53695;DHT22;39588;51.124;7.190;2023-02-01T11:37:52;5.60;99.30
53695;DHT22;39588;51.124;7.190;2023-02-01T11:45:28;5.70;99.30
53695;DHT22;39588;51.124;7.190;2023-02-01T11:47:56;5.70;99.20
53695;DHT22;39588;51.124;7.190;2023-02-01T11:59:00;5.60;99.20
53695;DHT22;39588;51.124;7.190;2023-02-01T12:43:19;5.80;99.50
53695;DHT22;39588;51.124;7.190;2023-02-01T12:45:59;5.80;99.40
53695;DHT22;39588;51.124;7.190;2023-02-01T12:48:37;5.80;99.40
53695;DHT22;39588;51.124;7.190;2023-02-01T12:51:15;5.80;99.30
53695;DHT22;39588;51.124;7.190;2023-02-01T12:53:44;5.80;99.40
53695;DHT22;39588;51.124;7.190;2023-02-01T12:58:53;5.80;99.30
53695;DHT22;39588;51.124;7.190;2023-02-01T13:01:45;5.80;99.20
53695;DHT22;39588;51.124;7.190;2023-02-01T13:04:33;5.80;99.10
53695;DHT22;39588;51.124;7.190;2023-02-01T13:07:17;5.80;99.10
53695;DHT22;39588;51.124;7.190;2023-02-01T13:12:37;5.80;99.20
53695;DHT22;39588;51.124;7.190;2023-02-01T13:15:26;5.80;99.20
53695;DHT22;39588;51.124;7.190;2023-02-01T13:17:55;5.80;99.20
53695;DHT22;39588;51.124;7.190;2023-02-01T13:20:41;5.90;99.10
53695;DHT22;39588;51.124;7.190;2023-02-01T13:23:21;5.90;99.00
53695;DHT22;39588;51.124;7.190;2023-02-01T13:25:51;5.90;99.00
53695;DHT22;39588;51.124;7.190;2023-02-01T13:33:42;5.90;99.00
53695;DHT22;39588;51.124;7.190;2023-02-01T13:41:51;6.00;99.00
53695;DHT22;39588;51.124;7.190;2023-02-01T13:44:30;6.00;99.00
53695;DHT22;39588;51.124;7.190;2023-02-01T13:46:59;6.00;99.10
53695;DHT22;39588;51.124;7.190;2023-02-01T13:49:28;6.00;99.10
53695;DHT22;39588;51.124;7.190;2023-02-01T13:51:57;6.00;99.30
53695;DHT22;39588;51.124;7.190;2023-02-01T13:56:52;5.90;99.40
53695;DHT22;39588;51.124;7.190;2023-02-01T14:24:00;5.90;99.60
53695;DHT22;39588;51.124;7.190;2023-02-01T14:26:41;5.90;99.40
53695;DHT22;39588;51.124;7.190;2023-02-01T14:31:52;6.00;99.20
53695;DHT22;39588;51.124;7.190;2023-02-01T14:34:24;6.00;99.10
53695;DHT22;39588;51.124;7.190;2023-02-01T14:36:59;6.00;99.20
53695;DHT22;39588;51.124;7.190;2023-02-01T14:42:00;6.10;99.10
53695;DHT22;39588;51.124;7.190;2023-02-01T14:44:32;6.10;99.10
53695;DHT22;39588;51.124;7.190;2023-02-01T14:50:03;6.10;99.10
53695;DHT22;39588;51.124;7.190;2023-02-01T14:52:40;6.10;99.00
53695;DHT22;39588;51.124;7.190;2023-02-01T14:55:33;6.20;99.10
53695;DHT22;39588;51.124;7.190;2023-02-01T14:58:02;6.20;99.20
53695;DHT22;39588;51.124;7.190;2023-02-01T15:00:31;6.20;99.10
53695;DHT22;39588;51.124;7.190;2023-02-01T15:06:01;6.20;99.00
53695;DHT22;39588;51.124;7.190;2023-02-01T15:08:38;6.20;99.10
53695;DHT22;39588;51.124;7.190;2023-02-01T15:11:11;6.20;99.10
53695;DHT22;39588;51.124;7.190;2023-02-01T15:13:39;6.20;99.10
53695;DHT22;39588;51.124;7.190;2023-02-01T15:16:13;6.20;99.00
53695;DHT22;39588;51.124;7.190;2023-02-01T15:18:39;6.20;98.80
53695;DHT22;39588;51.124;7.190;2023-02-01T15:21:07;6.20;98.80
53695;DHT22;39588;51.124;7.190;2023-02-01T15:23:39;6.30;98.70
53695;DHT22;39588;51.124;7.190;2023-02-01T15:26:05;6.20;98.70
53695;DHT22;39588;51.124;7.190;2023-02-01T15:28:31;6.20;98.70
53695;DHT22;39588;51.124;7.190;2023-02-01T15:31:02;6.30;98.60
53695;DHT22;39588;51.124;7.190;2023-02-01T15:33:29;6.30;98.90
53695;DHT22;39588;51.124;7.190;2023-02-01T15:36:10;6.20;99.00
53695;DHT22;39588;51.124;7.190;2023-02-01T15:38:40;6.20;99.10
53695;DHT22;39588;51.124;7.190;2023-02-01T15:41:11;6.20;99.20
53695;DHT22;39588;51.124;7.190;2023-02-01T15:46:38;6.20;99.10
53695;DHT22;39588;51.124;7.190;2023-02-01T15:49:05;6.20;99.00
53695;DHT22;39588;51.124;7.190;2023-02-01T15:51:44;6.20;99.10
53695;DHT22;39588;51.124;7.190;2023-02-01T15:54:22;6.20;99.00
53695;DHT22;39588;51.124;7.190;2023-02-01T15:56:54;6.20;99.00
53695;DHT22;39588;51.124;7.190;2023-02-01T15:59:28;6.20;98.90
53695;DHT22;39588;51.124;7.190;2023-02-01T16:01:54;6.30;98.90
53695;DHT22;39588;51.124;7.190;2023-02-01T16:04:26;6.30;98.90
53695;DHT22;39588;51.124;7.190;2023-02-01T16:07:00;6.30;98.90
53695;DHT22;39588;51.124;7.190;2023-02-01T16:09:38;6.30;98.80
53695;DHT22;39588;51.124;7.190;2023-02-01T16:12:33;6.30;98.80
53695;DHT22;39588;51.124;7.190;2023-02-01T16:15:01;6.30;98.80
53695;DHT22;39588;51.124;7.190;2023-02-01T16:17:27;6.30;98.70
53695;DHT22;39588;51.124;7.190;2023-02-01T16:22:19;6.30;98.70
53695;DHT22;39588;51.124;7.190;2023-02-01T16:24:45;6.30;98.90
53695;DHT22;39588;51.124;7.190;2023-02-01T16:29:36;6.30;98.90
53695;DHT22;39588;51.124;7.190;2023-02-01T16:32:02;6.30;98.80
53695;DHT22;39588;51.124;7.190;2023-02-01T16:34:29;6.30;98.90
53695;DHT22;39588;51.124;7.190;2023-02-01T16:36:55;6.30;98.80
53695;DHT22;39588;51.124;7.190;2023-02-01T16:39:23;6.30;98.90
53695;DHT22;39588;51.124;7.190;2023-02-01T16:41:49;6.40;98.90
53695;DHT22;39588;51.124;7.190;2023-02-01T16:44:14;6.30;98.90
53695;DHT22;39588;51.124;7.190;2023-02-01T16:46:42;6.40;98.90
53695;DHT22;39588;51.124;7.190;2023-02-01T16:49:20;6.40;99.10
53695;DHT22;39588;51.124;7.190;2023-02-01T16:51:48;6.40;99.30
53695;DHT22;39588;51.124;7.190;2023-02-01T16:56:41;6.30;99.30
53695;DHT22;39588;51.124;7.190;2023-02-01T16:59:07;6.30;99.30
53695;DHT22;39588;51.124;7.190;2023-02-01T17:01:34;6.30;99.40
53695;DHT22;39588;51.124;7.190;2023-02-01T17:04:00;6.30;99.40
53695;DHT22;39588;51.124;7.190;2023-02-01T17:06:26;6.30;99.30
53695;DHT22;39588;51.124;7.190;2023-02-01T17:08:57;6.30;99.20
53695;DHT22;39588;51.124;7.190;2023-02-01T17:11:27;6.30;99.30
53695;DHT22;39588;51.124;7.190;2023-02-01T17:16:28;7.70;99.80
53695;DHT22;39588;51.124;7.190;2023-02-01T17:18:57;6.30;99.40
53695;DHT22;39588;51.124;7.190;2023-02-01T17:21:25;6.30;99.30
53695;DHT22;39588;51.124;7.190;2023-02-01T17:26:18;6.30;99.30
53695;DHT22;39588;51.124;7.190;2023-02-01T17:31:13;6.40;99.40
53695;DHT22;39588;51.124;7.190;2023-02-01T17:33:40;6.40;99.30
53695;DHT22;39588;51.124;7.190;2023-02-01T17:36:08;6.40;99.40
53695;DHT22;39588;51.124;7.190;2023-02-01T17:38:35;6.40;99.40
53695;DHT22;39588;51.124;7.190;2023-02-01T17:41:01;6.40;99.40
53695;DHT22;39588;51.124;7.190;2023-02-01T17:43:26;6.40;99.30
53695;DHT22;39588;51.124;7.190;2023-02-01T17:46:02;6.40;99.30
53695;DHT22;39588;51.124;7.190;2023-02-01T17:48:28;6.40;99.30
53695;DHT22;39588;51.124;7.190;2023-02-01T17:50:54;6.40;99.20
53695;DHT22;39588;51.124;7.190;2023-02-01T17:53:27;6.40;99.20
53695;DHT22;39588;51.124;7.190;2023-02-01T17:55:53;6.40;99.30
53695;DHT22;39588;51.124;7.190;2023-02-01T17:58:21;6.40;99.20
53695;DHT22;39588;51.124;7.190;2023-02-01T18:00:48;6.40;99.20
53695;DHT22;39588;51.124;7.190;2023-02-01T18:03:28;6.40;99.20
53695;DHT22;39588;51.124;7.190;2023-02-01T18:05:56;6.40;99.20
53695;DHT22;39588;51.124;7.190;2023-02-01T18:08:25;6.40;99.20
53695;DHT22;39588;51.124;7.190;2023-02-01T18:10:55;6.40;99.20
53695;DHT22;39588;51.124;7.190;2023-02-01T18:15:50;6.50;99.20
53695;DHT22;39588;51.124;7.190;2023-02-01T18:18:16;6.50;99.20
53695;DHT22;39588;51.124;7.190;2023-02-01T18:20:43;6.50;99.20
53695;DHT22;39588;51.124;7.190;2023-02-01T18:23:19;6.40;99.20
53695;DHT22;39588;51.124;7.190;2023-02-01T18:28:15;6.50;99.30
53695;DHT22;39588;51.124;7.190;2023-02-01T18:30:43;6.50;99.30
53695;DHT22;39588;51.124;7.190;2023-02-01T18:33:11;6.50;99.30
53695;DHT22;39588;51.124;7.190;2023-02-01T18:40:36;6.40;99.30
53695;DHT22;39588;51.124;7.190;2023-02-01T18:45:36;6.40;99.50
53695;DHT22;39588;51.124;7.190;2023-02-01T18:48:04;6.40;99.40
53695;DHT22;39588;51.124;7.190;2023-02-01T18:50:33;6.40;99.40
53695;DHT22;39588;51.124;7.190;2023-02-01T18:53:00;6.40;99.50
53695;DHT22;39588;51.124;7.190;2023-02-01T18:55:27;6.40;99.60
53695;DHT22;39588;51.124;7.190;2023-02-01T18:57:53;6.40;99.50
53695;DHT22;39588;51.124;7.190;2023-02-01T19:00:21;6.40;99.50
53695;DHT22;39588;51.124;7.190;2023-02-01T19:02:47;6.40;99.50
53695;DHT22;39588;51.124;7.190;2023-02-01T19:05:13;6.40;99.60
53695;DHT22;39588;51.124;7.190;2023-02-01T19:07:40;6.40;99.50
53695;DHT22;39588;51.124;7.190;2023-02-01T19:10:11;6.40;99.60
53695;DHT22;39588;51.124;7.190;2023-02-01T19:12:37;6.40;99.60
53695;DHT22;39588;51.124;7.190;2023-02-01T19:15:05;6.40;99.70
53695;DHT22;39588;51.124;7.190;2023-02-01T19:17:31;6.40;99.60
53695;DHT22;39588;51.124;7.190;2023-02-01T19:22:26;6.40;99.60
53695;DHT22;39588;51.124;7.190;2023-02-01T19:24:52;6.40;99.60
53695;DHT22;39588;51.124;7.190;2023-02-01T19:27:18;6.40;99.70
53695;DHT22;39588;51.124;7.190;2023-02-01T19:29:44;6.40;99.50
53695;DHT22;39588;51.124;7.190;2023-02-01T19:32:12;6.40;99.60
53695;DHT22;39588;51.124;7.190;2023-02-01T19:34:38;6.40;99.60
53695;DHT22;39588;51.124;7.190;2023-02-01T19:37:05;6.40;99.60
53695;DHT22;39588;51.124;7.190;2023-02-01T19:39:31;6.40;99.60
53695;DHT22;39588;51.124;7.190;2023-02-01T19:41:57;6.40;99.60
53695;DHT22;39588;51.124;7.190;2023-02-01T19:54:10;6.40;99.70
53695;DHT22;39588;51.124;7.190;2023-02-01T19:56:37;6.40;99.80
53695;DHT22;39588;51.124;7.190;2023-02-01T19:59:03;6.50;99.70
53695;DHT22;39588;51.124;7.190;2023-02-01T20:01:30;6.50;99.80
53695;DHT22;39588;51.124;7.190;2023-02-01T20:03:56;6.40;99.70
53695;DHT22;39588;51.124;7.190;2023-02-01T20:06:28;6.40;99.70
53695;DHT22;39588;51.124;7.190;2023-02-01T20:08:55;6.40;99.70
53695;DHT22;39588;51.124;7.190;2023-02-01T20:11:22;6.40;99.80
53695;DHT22;39588;51.124;7.190;2023-02-01T20:21:08;6.30;99.90
53695;DHT22;39588;51.124;7.190;2023-02-01T20:23:34;6.40;99.90
53695;DHT22;39588;51.124;7.190;2023-02-01T20:26:03;6.30;99.90
53695;DHT22;39588;51.124;7.190;2023-02-01T20:28:29;6.30;99.90
53695;DHT22;39588;51.124;7.190;2023-02-01T20:30:56;6.30;99.90
53695;DHT22;39588;51.124;7.190;2023-02-01T20:33:22;6.30;99.90
53695;DHT22;39588;51.124;7.190;2023-02-01T20:38:13;6.30;99.90
53695;DHT22;39588;51.124;7.190;2023-02-01T20:45:33;6.40;99.90
53695;DHT22;39588;51.124;7.190;2023-02-01T20:47:58;6.40;99.90
53695;DHT22;39588;51.124;7.190;2023-02-01T20:52:50;6.40;99.90
53695;DHT22;39588;51.124;7.190;2023-02-01T21:00:08;6.40;99.90
53695;DHT22;39588;51.124;7.190;2023-02-01T21:02:34;6.40;99.90
53695;DHT22;39588;51.124;7.190;2023-02-01T21:07:26;6.40;99.90
53695;DHT22;39588;51.124;7.190;2023-02-01T21:09:52;6.40;99.90
53695;DHT22;39588;51.124;7.190;2023-02-01T21:12:17;6.40;99.90
53695;DHT22;39588;51.124;7.190;2023-02-01T21:14:43;6.40;99.90
53695;DHT22;39588;51.124;7.190;2023-02-01T21:17:08;6.40;99.90
53695;DHT22;39588;51.124;7.190;2023-02-01T21:22:09;6.40;99.90
53695;DHT22;39588;51.124;7.190;2023-02-01T21:31:17;6.50;99.90
53695;DHT22;39588;51.124;7.190;2023-02-01T21:33:45;6.50;99.90
53695;DHT22;39588;51.124;7.190;2023-02-01T21:36:15;6.50;99.90
53695;DHT22;39588;51.124;7.190;2023-02-01T21:38:47;6.50;99.90
53695;DHT22;39588;51.124;7.190;2023-02-01T21:41:16;6.50;99.90
53695;DHT22;39588;51.124;7.190;2023-02-01T21:46:27;6.50;99.90
53695;DHT22;39588;51.124;7.190;2023-02-01T21:48:53;6.50;99.90
53695;DHT22;39588;51.124;7.190;2023-02-01T21:53:44;6.50;99.90
53695;DHT22;39588;51.124;7.190;2023-02-01T21:56:10;6.50;99.90
53695;DHT22;39588;51.124;7.190;2023-02-01T21:58:36;6.50;99.90
53695;DHT22;39588;51.124;7.190;2023-02-01T22:01:02;6.50;99.90
53695;DHT22;39588;51.124;7.190;2023-02-01T22:03:28;6.60;99.90
53695;DHT22;39588;51.124;7.190;2023-02-01T22:13:12;6.60;99.90
53695;DHT22;39588;51.124;7.190;2023-02-01T22:18:03;6.60;99.90
53695;DHT22;39588;51.124;7.190;2023-02-01T22:20:29;6.60;99.90
53695;DHT22;39588;51.124;7.190;2023-02-01T22:25:22;6.60;99.90
53695;DHT22;39588;51.124;7.190;2023-02-01T22:27:52;6.60;99.90
53695;DHT22;39588;51.124;7.190;2023-02-01T22:37:35;6.60;99.90
53695;DHT22;39588;51.124;7.190;2023-02-01T22:59:39;6.70;99.90
53695;DHT22;39588;51.124;7.190;2023-02-01T23:02:04;6.70;99.90
53695;DHT22;39588;51.124;7.190;2023-02-01T23:04:30;6.70;99.90
53695;DHT22;39588;51.124;7.190;2023-02-01T23:09:23;6.70;99.90
53695;DHT22;39588;51.124;7.190;2023-02-01T23:11:50;6.70;99.90
53695;DHT22;39588;51.124;7.190;2023-02-01T23:14:17;6.70;99.90
53695;DHT22;39588;51.124;7.190;2023-02-01T23:16:43;6.70;99.90
53695;DHT22;39588;51.124;7.190;2023-02-01T23:19:09;6.70;99.90
53695;DHT22;39588;51.124;7.190;2023-02-01T23:21:35;6.70;99.90
53695;DHT22;39588;51.124;7.190;2023-02-01T23:24:01;6.80;99.90
53695;DHT22;39588;51.124;7.190;2023-02-01T23:31:25;6.80;99.90
53695;DHT22;39588;51.124;7.190;2023-02-01T23:33:51;6.70;99.90
53695;DHT22;39588;51.124;7.190;2023-02-01T23:36:22;6.80;99.90
53695;DHT22;39588;51.124;7.190;2023-02-01T23:41:16;6.80;99.90
53695;DHT22;39588;51.124;7.190;2023-02-01T23:46:33;6.80;99.90
53695;DHT22;39588;51.124;7.190;2023-02-01T23:49:00;6.70;99.90
53695;DHT22;39588;51.124;7.190;2023-02-01T23:51:26;6.70;99.90
53695;DHT22;39588;51.124;7.190;2023-02-01T23:53:52;6.70;99.90
